sensor_id;sensor_type;location;lat;lon;timestamp;P1;durP1;ratioP1;P2;durP2;ratioP2
67092;SDS011;54011;50.772;7.730;2023-07-31T00:01:05;5.65;;;2.28;;
67092;SDS011;54011;50.772;7.730;2023-07-31T00:03:32;11.07;;;2.22;;
67092;SDS011;54011;50.772;7.730;2023-07-31T00:05:57;8.75;;;2.40;;
67092;SDS011;54011;50.772;7.730;2023-07-31T00:08:23;4.68;;;1.95;;
67092;SDS011;54011;50.772;7.730;2023-07-31T00:10:53;6.57;;;2.35;;
67092;SDS011;54011;50.772;7.730;2023-07-31T00:13:18;6.88;;;2.60;;
67092;SDS011;54011;50.772;7.730;2023-07-31T00:15:45;8.25;;;2.67;;
67092;SDS011;54011;50.772;7.730;2023-07-31T00:18:11;6.97;;;2.10;;
67092;SDS011;54011;50.772;7.730;2023-07-31T00:20:38;6.25;;;1.95;;
67092;SDS011;54011;50.772;7.730;2023-07-31T00:23:03;4.28;;;1.90;;
67092;SDS011;54011;50.772;7.730;2023-07-31T00:25:29;6.03;;;2.50;;
67092;SDS011;54011;50.772;7.730;2023-07-31T00:27:55;4.07;;;1.95;;
67092;SDS011;54011;50.772;7.730;2023-07-31T00:30:22;7.88;;;2.40;;
67092;SDS011;54011;50.772;7.730;2023-07-31T00:32:47;5.65;;;2.17;;
67092;SDS011;54011;50.772;7.730;2023-07-31T00:35:14;6.95;;;2.45;;
67092;SDS011;54011;50.772;7.730;2023-07-31T00:37:39;5.45;;;2.00;;
67092;SDS011;54011;50.772;7.730;2023-07-31T00:40:05;6.32;;;2.20;;
67092;SDS011;54011;50.772;7.730;2023-07-31T00:42:32;5.20;;;2.08;;
67092;SDS011;54011;50.772;7.730;2023-07-31T00:44:57;6.55;;;2.50;;
67092;SDS011;54011;50.772;7.730;2023-07-31T00:47:23;7.38;;;2.63;;
67092;SDS011;54011;50.772;7.730;2023-07-31T00:49:48;8.93;;;2.30;;
67092;SDS011;54011;50.772;7.730;2023-07-31T00:52:16;8.30;;;2.30;;
67092;SDS011;54011;50.772;7.730;2023-07-31T00:54:44;8.50;;;2.53;;
67092;SDS011;54011;50.772;7.730;2023-07-31T00:57:09;5.47;;;2.03;;
67092;SDS011;54011;50.772;7.730;2023-07-31T00:59:35;7.18;;;2.15;;
67092;SDS011;54011;50.772;7.730;2023-07-31T01:02:02;5.97;;;2.10;;
67092;SDS011;54011;50.772;7.730;2023-07-31T01:04:28;8.38;;;2.55;;
67092;SDS011;54011;50.772;7.730;2023-07-31T01:07:03;5.80;;;2.28;;
67092;SDS011;54011;50.772;7.730;2023-07-31T01:09:45;5.90;;;2.03;;
67092;SDS011;54011;50.772;7.730;2023-07-31T01:12:24;6.40;;;2.25;;
67092;SDS011;54011;50.772;7.730;2023-07-31T01:17:28;5.78;;;2.10;;
67092;SDS011;54011;50.772;7.730;2023-07-31T01:19:54;6.22;;;1.90;;
67092;SDS011;54011;50.772;7.730;2023-07-31T01:22:46;7.68;;;2.03;;
67092;SDS011;54011;50.772;7.730;2023-07-31T01:25:31;9.20;;;2.80;;
67092;SDS011;54011;50.772;7.730;2023-07-31T01:28:24;5.82;;;1.90;;
67092;SDS011;54011;50.772;7.730;2023-07-31T01:30:52;5.82;;;2.10;;
67092;SDS011;54011;50.772;7.730;2023-07-31T01:33:22;5.65;;;1.65;;
67092;SDS011;54011;50.772;7.730;2023-07-31T01:35:48;6.78;;;1.92;;
67092;SDS011;54011;50.772;7.730;2023-07-31T01:38:15;5.70;;;1.92;;
67092;SDS011;54011;50.772;7.730;2023-07-31T01:40:45;6.70;;;2.00;;
67092;SDS011;54011;50.772;7.730;2023-07-31T01:43:18;4.15;;;1.80;;
67092;SDS011;54011;50.772;7.730;2023-07-31T01:45:44;4.93;;;2.05;;
67092;SDS011;54011;50.772;7.730;2023-07-31T01:48:11;8.40;;;2.10;;
67092;SDS011;54011;50.772;7.730;2023-07-31T01:50:38;7.00;;;2.30;;
67092;SDS011;54011;50.772;7.730;2023-07-31T01:53:03;4.80;;;1.67;;
67092;SDS011;54011;50.772;7.730;2023-07-31T01:55:30;4.88;;;1.63;;
67092;SDS011;54011;50.772;7.730;2023-07-31T01:57:57;6.80;;;2.15;;
67092;SDS011;54011;50.772;7.730;2023-07-31T02:00:23;7.38;;;2.28;;
67092;SDS011;54011;50.772;7.730;2023-07-31T02:02:48;7.18;;;2.92;;
67092;SDS011;54011;50.772;7.730;2023-07-31T02:05:18;7.83;;;2.33;;
67092;SDS011;54011;50.772;7.730;2023-07-31T02:07:44;8.27;;;2.45;;
67092;SDS011;54011;50.772;7.730;2023-07-31T02:10:09;7.75;;;2.40;;
67092;SDS011;54011;50.772;7.730;2023-07-31T02:12:37;9.10;;;2.40;;
67092;SDS011;54011;50.772;7.730;2023-07-31T02:15:03;9.10;;;2.75;;
67092;SDS011;54011;50.772;7.730;2023-07-31T02:17:30;6.10;;;2.25;;
67092;SDS011;54011;50.772;7.730;2023-07-31T02:19:56;11.00;;;2.97;;
67092;SDS011;54011;50.772;7.730;2023-07-31T02:22:22;7.80;;;2.72;;
67092;SDS011;54011;50.772;7.730;2023-07-31T02:24:48;8.73;;;2.88;;
67092;SDS011;54011;50.772;7.730;2023-07-31T02:27:14;7.55;;;2.70;;
67092;SDS011;54011;50.772;7.730;2023-07-31T02:29:39;6.63;;;2.90;;
67092;SDS011;54011;50.772;7.730;2023-07-31T02:32:04;8.85;;;3.38;;
67092;SDS011;54011;50.772;7.730;2023-07-31T02:34:32;9.02;;;2.90;;
67092;SDS011;54011;50.772;7.730;2023-07-31T02:36:58;7.72;;;3.30;;
67092;SDS011;54011;50.772;7.730;2023-07-31T02:39:23;7.63;;;3.03;;
67092;SDS011;54011;50.772;7.730;2023-07-31T02:41:49;10.27;;;2.83;;
67092;SDS011;54011;50.772;7.730;2023-07-31T02:44:15;8.68;;;2.95;;
67092;SDS011;54011;50.772;7.730;2023-07-31T02:46:41;8.30;;;2.47;;
67092;SDS011;54011;50.772;7.730;2023-07-31T02:49:06;7.38;;;2.95;;
67092;SDS011;54011;50.772;7.730;2023-07-31T02:51:35;6.43;;;2.63;;
67092;SDS011;54011;50.772;7.730;2023-07-31T02:54:02;6.53;;;2.92;;
67092;SDS011;54011;50.772;7.730;2023-07-31T02:56:28;9.73;;;2.78;;
67092;SDS011;54011;50.772;7.730;2023-07-31T02:58:54;8.20;;;3.28;;
67092;SDS011;54011;50.772;7.730;2023-07-31T03:01:20;9.63;;;3.20;;
67092;SDS011;54011;50.772;7.730;2023-07-31T03:03:46;8.73;;;2.97;;
67092;SDS011;54011;50.772;7.730;2023-07-31T03:06:12;11.88;;;3.08;;
67092;SDS011;54011;50.772;7.730;2023-07-31T03:08:37;9.77;;;3.33;;
67092;SDS011;54011;50.772;7.730;2023-07-31T03:11:02;13.40;;;3.50;;
67092;SDS011;54011;50.772;7.730;2023-07-31T03:13:28;7.82;;;2.85;;
67092;SDS011;54011;50.772;7.730;2023-07-31T03:15:54;7.88;;;3.03;;
67092;SDS011;54011;50.772;7.730;2023-07-31T03:18:19;8.48;;;3.22;;
67092;SDS011;54011;50.772;7.730;2023-07-31T03:20:46;8.32;;;3.10;;
67092;SDS011;54011;50.772;7.730;2023-07-31T03:23:12;8.02;;;2.78;;
67092;SDS011;54011;50.772;7.730;2023-07-31T03:25:41;9.63;;;3.20;;
67092;SDS011;54011;50.772;7.730;2023-07-31T03:28:20;8.57;;;2.97;;
67092;SDS011;54011;50.772;7.730;2023-07-31T03:30:46;9.30;;;3.03;;
67092;SDS011;54011;50.772;7.730;2023-07-31T03:33:12;10.93;;;2.83;;
67092;SDS011;54011;50.772;7.730;2023-07-31T03:35:38;6.65;;;2.63;;
67092;SDS011;54011;50.772;7.730;2023-07-31T03:38:04;7.25;;;2.60;;
67092;SDS011;54011;50.772;7.730;2023-07-31T03:40:30;7.68;;;3.15;;
67092;SDS011;54011;50.772;7.730;2023-07-31T03:42:56;8.98;;;3.15;;
67092;SDS011;54011;50.772;7.730;2023-07-31T03:45:21;8.05;;;2.85;;
67092;SDS011;54011;50.772;7.730;2023-07-31T03:47:47;12.15;;;2.92;;
67092;SDS011;54011;50.772;7.730;2023-07-31T03:50:13;7.10;;;3.00;;
67092;SDS011;54011;50.772;7.730;2023-07-31T03:52:40;5.65;;;2.78;;
67092;SDS011;54011;50.772;7.730;2023-07-31T03:55:06;7.60;;;3.20;;
67092;SDS011;54011;50.772;7.730;2023-07-31T03:57:32;8.20;;;3.05;;
67092;SDS011;54011;50.772;7.730;2023-07-31T04:00:00;10.55;;;2.92;;
67092;SDS011;54011;50.772;7.730;2023-07-31T04:02:26;8.30;;;3.15;;
67092;SDS011;54011;50.772;7.730;2023-07-31T04:04:51;8.82;;;2.80;;
67092;SDS011;54011;50.772;7.730;2023-07-31T04:07:18;8.43;;;3.03;;
67092;SDS011;54011;50.772;7.730;2023-07-31T04:09:44;9.80;;;2.20;;
67092;SDS011;54011;50.772;7.730;2023-07-31T04:12:09;10.27;;;3.05;;
67092;SDS011;54011;50.772;7.730;2023-07-31T04:14:36;8.75;;;2.90;;
67092;SDS011;54011;50.772;7.730;2023-07-31T04:17:02;8.25;;;2.85;;
67092;SDS011;54011;50.772;7.730;2023-07-31T04:19:28;8.15;;;2.75;;
67092;SDS011;54011;50.772;7.730;2023-07-31T04:21:53;8.77;;;2.75;;
67092;SDS011;54011;50.772;7.730;2023-07-31T04:24:20;9.57;;;2.53;;
67092;SDS011;54011;50.772;7.730;2023-07-31T04:26:52;8.02;;;2.47;;
67092;SDS011;54011;50.772;7.730;2023-07-31T04:29:18;9.25;;;2.78;;
67092;SDS011;54011;50.772;7.730;2023-07-31T04:31:47;8.68;;;2.60;;
67092;SDS011;54011;50.772;7.730;2023-07-31T04:34:13;6.88;;;2.72;;
67092;SDS011;54011;50.772;7.730;2023-07-31T04:36:41;8.95;;;2.47;;
67092;SDS011;54011;50.772;7.730;2023-07-31T04:39:08;5.40;;;2.55;;
67092;SDS011;54011;50.772;7.730;2023-07-31T04:41:34;6.15;;;2.80;;
67092;SDS011;54011;50.772;7.730;2023-07-31T04:44:00;7.50;;;2.83;;
67092;SDS011;54011;50.772;7.730;2023-07-31T04:46:28;7.28;;;2.70;;
67092;SDS011;54011;50.772;7.730;2023-07-31T04:48:54;7.40;;;2.60;;
67092;SDS011;54011;50.772;7.730;2023-07-31T04:51:20;10.00;;;2.60;;
67092;SDS011;54011;50.772;7.730;2023-07-31T04:53:46;8.00;;;2.97;;
67092;SDS011;54011;50.772;7.730;2023-07-31T04:56:12;6.43;;;2.70;;
67092;SDS011;54011;50.772;7.730;2023-07-31T04:58:39;7.15;;;2.38;;
67092;SDS011;54011;50.772;7.730;2023-07-31T05:01:06;10.80;;;2.80;;
67092;SDS011;54011;50.772;7.730;2023-07-31T05:03:32;8.30;;;2.40;;
67092;SDS011;54011;50.772;7.730;2023-07-31T05:05:59;7.85;;;2.85;;
67092;SDS011;54011;50.772;7.730;2023-07-31T05:08:30;10.30;;;2.20;;
67092;SDS011;54011;50.772;7.730;2023-07-31T05:10:56;5.57;;;2.55;;
67092;SDS011;54011;50.772;7.730;2023-07-31T05:13:21;5.88;;;2.35;;
67092;SDS011;54011;50.772;7.730;2023-07-31T05:15:48;8.77;;;2.30;;
67092;SDS011;54011;50.772;7.730;2023-07-31T05:18:14;6.30;;;2.10;;
67092;SDS011;54011;50.772;7.730;2023-07-31T05:20:44;6.03;;;2.25;;
67092;SDS011;54011;50.772;7.730;2023-07-31T05:23:11;5.45;;;2.45;;
67092;SDS011;54011;50.772;7.730;2023-07-31T05:25:39;9.32;;;2.25;;
67092;SDS011;54011;50.772;7.730;2023-07-31T05:28:08;5.60;;;2.30;;
67092;SDS011;54011;50.772;7.730;2023-07-31T05:30:37;8.63;;;2.55;;
67092;SDS011;54011;50.772;7.730;2023-07-31T05:33:04;4.43;;;2.00;;
67092;SDS011;54011;50.772;7.730;2023-07-31T05:35:30;9.15;;;3.00;;
67092;SDS011;54011;50.772;7.730;2023-07-31T05:37:56;8.13;;;2.88;;
67092;SDS011;54011;50.772;7.730;2023-07-31T05:40:22;5.78;;;2.30;;
67092;SDS011;54011;50.772;7.730;2023-07-31T05:42:48;9.65;;;2.65;;
67092;SDS011;54011;50.772;7.730;2023-07-31T05:45:14;4.70;;;2.10;;
67092;SDS011;54011;50.772;7.730;2023-07-31T05:47:40;7.25;;;2.53;;
67092;SDS011;54011;50.772;7.730;2023-07-31T05:50:06;5.15;;;2.15;;
67092;SDS011;54011;50.772;7.730;2023-07-31T05:52:32;10.65;;;2.80;;
67092;SDS011;54011;50.772;7.730;2023-07-31T05:54:57;8.98;;;2.28;;
67092;SDS011;54011;50.772;7.730;2023-07-31T05:57:23;4.97;;;1.95;;
67092;SDS011;54011;50.772;7.730;2023-07-31T05:59:51;5.38;;;2.38;;
67092;SDS011;54011;50.772;7.730;2023-07-31T06:02:18;5.60;;;2.35;;
67092;SDS011;54011;50.772;7.730;2023-07-31T06:04:44;7.78;;;2.35;;
67092;SDS011;54011;50.772;7.730;2023-07-31T06:07:09;4.78;;;1.98;;
67092;SDS011;54011;50.772;7.730;2023-07-31T06:09:35;7.18;;;2.25;;
67092;SDS011;54011;50.772;7.730;2023-07-31T06:12:04;6.40;;;2.38;;
67092;SDS011;54011;50.772;7.730;2023-07-31T06:14:30;6.28;;;2.63;;
67092;SDS011;54011;50.772;7.730;2023-07-31T06:16:55;5.07;;;2.30;;
67092;SDS011;54011;50.772;7.730;2023-07-31T06:19:22;4.80;;;1.83;;
67092;SDS011;54011;50.772;7.730;2023-07-31T06:21:48;6.47;;;2.22;;
67092;SDS011;54011;50.772;7.730;2023-07-31T06:24:13;4.32;;;2.08;;
67092;SDS011;54011;50.772;7.730;2023-07-31T06:26:44;5.90;;;2.50;;
67092;SDS011;54011;50.772;7.730;2023-07-31T06:29:09;6.07;;;2.20;;
67092;SDS011;54011;50.772;7.730;2023-07-31T06:31:35;7.78;;;2.60;;
67092;SDS011;54011;50.772;7.730;2023-07-31T06:34:01;7.13;;;2.10;;
67092;SDS011;54011;50.772;7.730;2023-07-31T06:36:27;4.53;;;1.92;;
67092;SDS011;54011;50.772;7.730;2023-07-31T06:38:54;4.25;;;2.00;;
67092;SDS011;54011;50.772;7.730;2023-07-31T06:41:20;6.03;;;2.45;;
67092;SDS011;54011;50.772;7.730;2023-07-31T06:43:46;5.30;;;2.28;;
67092;SDS011;54011;50.772;7.730;2023-07-31T06:46:12;7.93;;;2.22;;
67092;SDS011;54011;50.772;7.730;2023-07-31T06:48:39;7.85;;;2.17;;
67092;SDS011;54011;50.772;7.730;2023-07-31T06:51:06;4.68;;;2.22;;
67092;SDS011;54011;50.772;7.730;2023-07-31T06:53:32;6.72;;;2.47;;
67092;SDS011;54011;50.772;7.730;2023-07-31T06:55:58;7.65;;;2.40;;
67092;SDS011;54011;50.772;7.730;2023-07-31T06:58:24;5.45;;;2.15;;
67092;SDS011;54011;50.772;7.730;2023-07-31T07:00:50;8.32;;;2.50;;
67092;SDS011;54011;50.772;7.730;2023-07-31T07:03:19;7.97;;;2.53;;
67092;SDS011;54011;50.772;7.730;2023-07-31T07:05:45;8.52;;;2.35;;
67092;SDS011;54011;50.772;7.730;2023-07-31T07:08:11;4.28;;;2.03;;
67092;SDS011;54011;50.772;7.730;2023-07-31T07:10:36;11.77;;;2.47;;
67092;SDS011;54011;50.772;7.730;2023-07-31T07:13:02;5.25;;;2.50;;
67092;SDS011;54011;50.772;7.730;2023-07-31T07:15:28;11.65;;;2.85;;
67092;SDS011;54011;50.772;7.730;2023-07-31T07:17:54;5.93;;;2.25;;
67092;SDS011;54011;50.772;7.730;2023-07-31T07:20:20;6.18;;;2.65;;
67092;SDS011;54011;50.772;7.730;2023-07-31T07:22:46;6.70;;;2.53;;
67092;SDS011;54011;50.772;7.730;2023-07-31T07:25:13;8.30;;;2.72;;
67092;SDS011;54011;50.772;7.730;2023-07-31T07:27:39;10.05;;;2.58;;
67092;SDS011;54011;50.772;7.730;2023-07-31T07:30:04;6.05;;;2.30;;
67092;SDS011;54011;50.772;7.730;2023-07-31T07:32:33;9.38;;;3.03;;
67092;SDS011;54011;50.772;7.730;2023-07-31T07:34:58;5.68;;;2.50;;
67092;SDS011;54011;50.772;7.730;2023-07-31T07:37:24;8.20;;;2.92;;
67092;SDS011;54011;50.772;7.730;2023-07-31T07:39:50;6.47;;;2.28;;
67092;SDS011;54011;50.772;7.730;2023-07-31T07:42:15;10.52;;;2.90;;
67092;SDS011;54011;50.772;7.730;2023-07-31T07:44:41;6.05;;;2.22;;
67092;SDS011;54011;50.772;7.730;2023-07-31T07:47:06;11.95;;;3.45;;
67092;SDS011;54011;50.772;7.730;2023-07-31T07:49:33;7.82;;;2.90;;
67092;SDS011;54011;50.772;7.730;2023-07-31T07:52:01;8.80;;;2.40;;
67092;SDS011;54011;50.772;7.730;2023-07-31T07:54:26;6.90;;;2.42;;
67092;SDS011;54011;50.772;7.730;2023-07-31T07:56:53;7.07;;;2.38;;
67092;SDS011;54011;50.772;7.730;2023-07-31T07:59:18;7.60;;;2.65;;
67092;SDS011;54011;50.772;7.730;2023-07-31T08:01:43;8.93;;;2.70;;
67092;SDS011;54011;50.772;7.730;2023-07-31T08:04:10;8.73;;;2.60;;
67092;SDS011;54011;50.772;7.730;2023-07-31T08:06:36;6.85;;;2.55;;
67092;SDS011;54011;50.772;7.730;2023-07-31T08:09:03;7.32;;;3.13;;
67092;SDS011;54011;50.772;7.730;2023-07-31T08:11:34;4.93;;;1.90;;
67092;SDS011;54011;50.772;7.730;2023-07-31T08:13:59;9.00;;;3.00;;
67092;SDS011;54011;50.772;7.730;2023-07-31T08:16:26;5.30;;;2.00;;
67092;SDS011;54011;50.772;7.730;2023-07-31T08:18:52;10.40;;;2.88;;
67092;SDS011;54011;50.772;7.730;2023-07-31T08:21:17;6.97;;;3.10;;
67092;SDS011;54011;50.772;7.730;2023-07-31T08:23:43;5.90;;;2.85;;
67092;SDS011;54011;50.772;7.730;2023-07-31T08:26:19;10.35;;;2.75;;
67092;SDS011;54011;50.772;7.730;2023-07-31T08:28:45;10.45;;;3.00;;
67092;SDS011;54011;50.772;7.730;2023-07-31T08:31:12;11.02;;;2.90;;
67092;SDS011;54011;50.772;7.730;2023-07-31T08:33:38;11.95;;;3.45;;
67092;SDS011;54011;50.772;7.730;2023-07-31T08:36:05;10.82;;;3.25;;
67092;SDS011;54011;50.772;7.730;2023-07-31T08:38:32;8.68;;;3.17;;
67092;SDS011;54011;50.772;7.730;2023-07-31T08:40:58;7.97;;;3.20;;
67092;SDS011;54011;50.772;7.730;2023-07-31T08:43:25;9.98;;;3.80;;
67092;SDS011;54011;50.772;7.730;2023-07-31T08:45:52;9.40;;;3.88;;
67092;SDS011;54011;50.772;7.730;2023-07-31T08:48:23;9.50;;;3.28;;
67092;SDS011;54011;50.772;7.730;2023-07-31T08:50:50;8.68;;;2.90;;
67092;SDS011;54011;50.772;7.730;2023-07-31T08:53:17;9.30;;;3.45;;
67092;SDS011;54011;50.772;7.730;2023-07-31T08:55:43;12.13;;;3.60;;
67092;SDS011;54011;50.772;7.730;2023-07-31T08:58:09;10.10;;;3.25;;
67092;SDS011;54011;50.772;7.730;2023-07-31T09:00:38;9.52;;;3.22;;
67092;SDS011;54011;50.772;7.730;2023-07-31T09:03:11;12.02;;;3.60;;
67092;SDS011;54011;50.772;7.730;2023-07-31T09:05:40;7.60;;;3.35;;
67092;SDS011;54011;50.772;7.730;2023-07-31T09:08:09;7.47;;;3.38;;
67092;SDS011;54011;50.772;7.730;2023-07-31T09:10:35;7.22;;;3.20;;
67092;SDS011;54011;50.772;7.730;2023-07-31T09:13:05;4.93;;;1.75;;
67092;SDS011;54011;50.772;7.730;2023-07-31T09:15:32;10.10;;;3.60;;
67092;SDS011;54011;50.772;7.730;2023-07-31T09:17:59;11.40;;;3.58;;
67092;SDS011;54011;50.772;7.730;2023-07-31T09:20:26;8.50;;;3.60;;
67092;SDS011;54011;50.772;7.730;2023-07-31T09:22:52;11.27;;;3.78;;
67092;SDS011;54011;50.772;7.730;2023-07-31T09:25:21;9.10;;;3.42;;
67092;SDS011;54011;50.772;7.730;2023-07-31T09:27:49;10.68;;;3.50;;
67092;SDS011;54011;50.772;7.730;2023-07-31T09:30:21;10.63;;;3.80;;
67092;SDS011;54011;50.772;7.730;2023-07-31T09:32:47;7.85;;;3.25;;
67092;SDS011;54011;50.772;7.730;2023-07-31T09:35:21;10.23;;;3.50;;
67092;SDS011;54011;50.772;7.730;2023-07-31T09:37:48;10.52;;;3.47;;
67092;SDS011;54011;50.772;7.730;2023-07-31T09:40:25;12.55;;;3.72;;
67092;SDS011;54011;50.772;7.730;2023-07-31T09:42:51;8.18;;;3.72;;
67092;SDS011;54011;50.772;7.730;2023-07-31T09:45:17;7.97;;;3.60;;
67092;SDS011;54011;50.772;7.730;2023-07-31T09:47:48;12.50;;;3.85;;
67092;SDS011;54011;50.772;7.730;2023-07-31T09:50:14;9.60;;;3.67;;
67092;SDS011;54011;50.772;7.730;2023-07-31T09:52:41;8.68;;;3.67;;
67092;SDS011;54011;50.772;7.730;2023-07-31T09:55:07;13.80;;;4.32;;
67092;SDS011;54011;50.772;7.730;2023-07-31T09:57:33;7.65;;;3.40;;
67092;SDS011;54011;50.772;7.730;2023-07-31T10:00:01;7.65;;;3.78;;
67092;SDS011;54011;50.772;7.730;2023-07-31T10:02:38;9.25;;;3.90;;
67092;SDS011;54011;50.772;7.730;2023-07-31T10:05:04;6.97;;;2.58;;
67092;SDS011;54011;50.772;7.730;2023-07-31T10:07:34;10.70;;;3.78;;
67092;SDS011;54011;50.772;7.730;2023-07-31T10:10:03;9.35;;;3.95;;
67092;SDS011;54011;50.772;7.730;2023-07-31T10:12:29;10.80;;;3.92;;
67092;SDS011;54011;50.772;7.730;2023-07-31T10:14:57;12.27;;;3.55;;
67092;SDS011;54011;50.772;7.730;2023-07-31T10:17:25;10.35;;;3.78;;
67092;SDS011;54011;50.772;7.730;2023-07-31T10:19:53;9.43;;;3.95;;
67092;SDS011;54011;50.772;7.730;2023-07-31T10:22:21;7.53;;;3.78;;
67092;SDS011;54011;50.772;7.730;2023-07-31T10:24:48;12.68;;;3.50;;
67092;SDS011;54011;50.772;7.730;2023-07-31T10:27:15;11.77;;;4.15;;
67092;SDS011;54011;50.772;7.730;2023-07-31T10:29:41;11.07;;;3.67;;
67092;SDS011;54011;50.772;7.730;2023-07-31T10:32:12;9.13;;;3.60;;
67092;SDS011;54011;50.772;7.730;2023-07-31T10:34:38;7.07;;;2.58;;
67092;SDS011;54011;50.772;7.730;2023-07-31T10:37:20;8.82;;;3.88;;
67092;SDS011;54011;50.772;7.730;2023-07-31T10:40:03;8.60;;;3.20;;
67092;SDS011;54011;50.772;7.730;2023-07-31T10:42:34;7.72;;;3.38;;
67092;SDS011;54011;50.772;7.730;2023-07-31T10:45:06;9.73;;;3.60;;
67092;SDS011;54011;50.772;7.730;2023-07-31T10:47:44;11.85;;;3.30;;
67092;SDS011;54011;50.772;7.730;2023-07-31T10:50:12;8.80;;;3.13;;
67092;SDS011;54011;50.772;7.730;2023-07-31T10:52:38;11.98;;;3.58;;
67092;SDS011;54011;50.772;7.730;2023-07-31T10:55:23;8.30;;;3.00;;
67092;SDS011;54011;50.772;7.730;2023-07-31T10:57:50;8.73;;;3.35;;
67092;SDS011;54011;50.772;7.730;2023-07-31T11:00:23;10.88;;;3.30;;
67092;SDS011;54011;50.772;7.730;2023-07-31T11:03:12;10.98;;;3.72;;
67092;SDS011;54011;50.772;7.730;2023-07-31T11:05:46;7.75;;;2.90;;
67092;SDS011;54011;50.772;7.730;2023-07-31T11:13:32;7.15;;;3.05;;
67092;SDS011;54011;50.772;7.730;2023-07-31T11:16:13;9.07;;;3.00;;
67092;SDS011;54011;50.772;7.730;2023-07-31T11:18:41;10.38;;;3.00;;
67092;SDS011;54011;50.772;7.730;2023-07-31T11:21:17;10.07;;;2.90;;
67092;SDS011;54011;50.772;7.730;2023-07-31T11:23:50;6.80;;;2.85;;
67092;SDS011;54011;50.772;7.730;2023-07-31T11:26:18;9.38;;;2.88;;
67092;SDS011;54011;50.772;7.730;2023-07-31T11:28:48;9.63;;;3.25;;
67092;SDS011;54011;50.772;7.730;2023-07-31T11:31:14;9.82;;;3.05;;
67092;SDS011;54011;50.772;7.730;2023-07-31T11:33:41;6.88;;;2.78;;
67092;SDS011;54011;50.772;7.730;2023-07-31T11:36:10;7.72;;;2.67;;
67092;SDS011;54011;50.772;7.730;2023-07-31T11:38:41;7.75;;;2.80;;
67092;SDS011;54011;50.772;7.730;2023-07-31T11:41:06;14.50;;;2.65;;
67092;SDS011;54011;50.772;7.730;2023-07-31T11:43:32;7.90;;;2.78;;
67092;SDS011;54011;50.772;7.730;2023-07-31T11:45:58;7.28;;;2.38;;
67092;SDS011;54011;50.772;7.730;2023-07-31T11:48:29;11.93;;;2.60;;
67092;SDS011;54011;50.772;7.730;2023-07-31T11:50:58;7.78;;;2.65;;
67092;SDS011;54011;50.772;7.730;2023-07-31T11:53:28;7.68;;;2.50;;
67092;SDS011;54011;50.772;7.730;2023-07-31T11:56:06;9.55;;;2.72;;
67092;SDS011;54011;50.772;7.730;2023-07-31T11:58:34;5.88;;;2.70;;
67092;SDS011;54011;50.772;7.730;2023-07-31T12:01:01;7.88;;;2.40;;
67092;SDS011;54011;50.772;7.730;2023-07-31T12:03:28;6.43;;;2.65;;
67092;SDS011;54011;50.772;7.730;2023-07-31T12:05:54;10.93;;;2.65;;
67092;SDS011;54011;50.772;7.730;2023-07-31T12:08:21;9.20;;;2.35;;
67092;SDS011;54011;50.772;7.730;2023-07-31T12:10:50;6.03;;;2.13;;
67092;SDS011;54011;50.772;7.730;2023-07-31T12:13:20;6.75;;;1.77;;
67092;SDS011;54011;50.772;7.730;2023-07-31T12:15:48;5.75;;;1.83;;
67092;SDS011;54011;50.772;7.730;2023-07-31T12:18:14;6.63;;;2.28;;
67092;SDS011;54011;50.772;7.730;2023-07-31T12:20:47;5.07;;;1.98;;
67092;SDS011;54011;50.772;7.730;2023-07-31T12:23:21;5.57;;;2.25;;
67092;SDS011;54011;50.772;7.730;2023-07-31T12:26:13;4.68;;;2.13;;
67092;SDS011;54011;50.772;7.730;2023-07-31T12:28:41;9.48;;;2.25;;
67092;SDS011;54011;50.772;7.730;2023-07-31T12:31:13;5.63;;;1.95;;
67092;SDS011;54011;50.772;7.730;2023-07-31T12:33:42;6.03;;;2.10;;
67092;SDS011;54011;50.772;7.730;2023-07-31T12:36:10;5.35;;;1.98;;
67092;SDS011;54011;50.772;7.730;2023-07-31T12:38:41;5.38;;;2.22;;
67092;SDS011;54011;50.772;7.730;2023-07-31T12:41:08;5.35;;;2.30;;
67092;SDS011;54011;50.772;7.730;2023-07-31T12:43:36;6.55;;;2.40;;
67092;SDS011;54011;50.772;7.730;2023-07-31T12:46:02;5.95;;;2.00;;
67092;SDS011;54011;50.772;7.730;2023-07-31T12:48:28;5.53;;;2.00;;
67092;SDS011;54011;50.772;7.730;2023-07-31T12:50:55;4.53;;;1.50;;
67092;SDS011;54011;50.772;7.730;2023-07-31T12:53:21;3.30;;;1.08;;
67092;SDS011;54011;50.772;7.730;2023-07-31T12:55:46;7.90;;;1.90;;
67092;SDS011;54011;50.772;7.730;2023-07-31T12:58:13;3.72;;;1.58;;
67092;SDS011;54011;50.772;7.730;2023-07-31T13:00:39;6.88;;;1.92;;
67092;SDS011;54011;50.772;7.730;2023-07-31T13:03:04;3.53;;;1.40;;
67092;SDS011;54011;50.772;7.730;2023-07-31T13:05:31;5.22;;;1.50;;
67092;SDS011;54011;50.772;7.730;2023-07-31T13:07:56;3.85;;;1.48;;
67092;SDS011;54011;50.772;7.730;2023-07-31T13:10:22;4.97;;;1.60;;
67092;SDS011;54011;50.772;7.730;2023-07-31T13:12:48;4.82;;;1.73;;
67092;SDS011;54011;50.772;7.730;2023-07-31T13:15:15;5.88;;;1.52;;
67092;SDS011;54011;50.772;7.730;2023-07-31T13:17:40;4.13;;;1.60;;
67092;SDS011;54011;50.772;7.730;2023-07-31T13:20:06;4.60;;;1.48;;
67092;SDS011;54011;50.772;7.730;2023-07-31T13:22:33;5.10;;;1.42;;
67092;SDS011;54011;50.772;7.730;2023-07-31T13:24:58;3.72;;;1.45;;
67092;SDS011;54011;50.772;7.730;2023-07-31T13:27:25;7.22;;;1.70;;
67092;SDS011;54011;50.772;7.730;2023-07-31T13:29:51;5.00;;;1.80;;
67092;SDS011;54011;50.772;7.730;2023-07-31T13:32:17;3.40;;;1.25;;
67092;SDS011;54011;50.772;7.730;2023-07-31T13:34:44;4.35;;;1.52;;
67092;SDS011;54011;50.772;7.730;2023-07-31T13:37:10;4.40;;;1.67;;
67092;SDS011;54011;50.772;7.730;2023-07-31T13:39:37;6.18;;;1.75;;
67092;SDS011;54011;50.772;7.730;2023-07-31T13:42:03;3.75;;;1.60;;
67092;SDS011;54011;50.772;7.730;2023-07-31T13:44:31;4.93;;;1.90;;
67092;SDS011;54011;50.772;7.730;2023-07-31T13:46:57;6.55;;;1.80;;
67092;SDS011;54011;50.772;7.730;2023-07-31T13:49:23;5.60;;;1.80;;
67092;SDS011;54011;50.772;7.730;2023-07-31T13:51:49;5.32;;;1.95;;
67092;SDS011;54011;50.772;7.730;2023-07-31T13:54:16;5.93;;;2.00;;
67092;SDS011;54011;50.772;7.730;2023-07-31T13:56:44;6.28;;;2.08;;
67092;SDS011;54011;50.772;7.730;2023-07-31T13:59:10;6.68;;;1.85;;
67092;SDS011;54011;50.772;7.730;2023-07-31T14:01:36;5.05;;;2.05;;
67092;SDS011;54011;50.772;7.730;2023-07-31T14:04:03;5.03;;;2.03;;
67092;SDS011;54011;50.772;7.730;2023-07-31T14:06:28;7.05;;;2.20;;
67092;SDS011;54011;50.772;7.730;2023-07-31T14:08:54;6.07;;;2.05;;
67092;SDS011;54011;50.772;7.730;2023-07-31T14:11:21;8.05;;;2.10;;
67092;SDS011;54011;50.772;7.730;2023-07-31T14:13:51;4.95;;;2.40;;
67092;SDS011;54011;50.772;7.730;2023-07-31T14:16:16;4.97;;;2.42;;
67092;SDS011;54011;50.772;7.730;2023-07-31T14:18:43;4.93;;;2.05;;
67092;SDS011;54011;50.772;7.730;2023-07-31T14:21:10;5.55;;;2.05;;
67092;SDS011;54011;50.772;7.730;2023-07-31T14:23:36;5.47;;;2.53;;
67092;SDS011;54011;50.772;7.730;2023-07-31T14:26:03;4.57;;;1.98;;
67092;SDS011;54011;50.772;7.730;2023-07-31T14:28:29;5.60;;;1.77;;
67092;SDS011;54011;50.772;7.730;2023-07-31T14:30:55;4.30;;;1.80;;
67092;SDS011;54011;50.772;7.730;2023-07-31T14:33:22;6.97;;;2.00;;
67092;SDS011;54011;50.772;7.730;2023-07-31T14:35:48;7.55;;;2.08;;
67092;SDS011;54011;50.772;7.730;2023-07-31T14:38:14;8.70;;;1.83;;
67092;SDS011;54011;50.772;7.730;2023-07-31T14:40:41;3.30;;;1.70;;
67092;SDS011;54011;50.772;7.730;2023-07-31T14:43:06;4.75;;;1.58;;
67092;SDS011;54011;50.772;7.730;2023-07-31T14:45:33;4.55;;;1.92;;
67092;SDS011;54011;50.772;7.730;2023-07-31T14:47:59;2.83;;;1.40;;
67092;SDS011;54011;50.772;7.730;2023-07-31T14:50:25;3.80;;;1.40;;
67092;SDS011;54011;50.772;7.730;2023-07-31T14:52:51;4.00;;;1.75;;
67092;SDS011;54011;50.772;7.730;2023-07-31T14:55:17;3.47;;;1.55;;